Terminal Aerodrome Forecast
Issued by NWS

Home | Current Version | Previous Version | Graphics & Text | Print | Product List | Glossary On
Versions: 1 2 3 4 5 6 7 8 9 10 11 12 13 14
000
FTUS43 KBIS 271738
TAFDIK
TAF
KDIK 271738Z 2718/2818 05011KT 1/2SM SN FG SCT001 OVC003
      TEMPO 2718/2721 3SM -RASN SCT004 OVC011
     FM272100 05012G18KT 4SM -RA BR SCT008 OVC014
      TEMPO 2721/2801 P6SM -RA SCT015 OVC060
     FM280100 05010KT 5SM -SHRA BR FEW008 OVC080
     FM280500 05007KT 4SM -SNRA BR BKN060 OVC080=

USA.gov is the U.S. government's official web portal to all federal, state and local government web resources and services.